PABI/DJN METAR and TAF weather

Enter ICAO airport designator
Station Type Date Time Source
PABI METAR 2019/04/18 13:53 UTC NOAA

PABI 181353Z 26008KT 10SM BKN022 OVC030 M04/M08 A2944 RMK AO2 SLP995 T10391078


Station Type Date Time Source
PABI Decoded METAR 2019/04/18 13:53 UTC NOAA

ALLEN ARMY AIRFIELD, AK, United States (PABI) 64-00N 145-43W 391M
Apr 18, 2019 - 09:53 AM EDT / 2019.04.18 1353 UTC
Wind: from the W (260 degrees) at 9 MPH (8 KT):0
Visibility: 10 mile(s):0
Sky conditions: overcast
Temperature: 25.0 F (-3.9 C)
Windchill: 15 F (-9 C):1
Dew Point: 18.0 F (-7.8 C)
Relative Humidity: 74%
Pressure (altimeter): 29.44 in. Hg (996 hPa)
ob: PABI 181353Z 26008KT 10SM BKN022 OVC030 M04/M08 A2944 RMK AO2 SLP995 T10391078
cycle: 14

Station Type Date Time Source
PABI TAF 2019/04/18 14:14 UTC NOAA

TAF PABI 181400Z 1814/1920 27009KT 9999 OVC030 620304 QNH2939INS
BECMG 1909/1910 29009KT 6000 -SN OVC018 620204 QNH2932INS
TEMPO 1913/1917 BKN007 620076 TX03/1900Z TNM04/1814Z

Example: see airport list